createdAt,value
2018-06-09T00:00:22.292Z,0.00
2018-06-09T00:01:21.868Z,4.00
2018-06-09T00:02:21.865Z,0.00
2018-06-09T00:03:22.239Z,0.00
2018-06-09T00:04:22.174Z,0.00
2018-06-09T00:05:22.259Z,0.00
2018-06-09T00:06:22.246Z,0.00
2018-06-09T00:07:22.069Z,0.00
2018-06-09T00:08:22.108Z,4.00
2018-06-09T00:09:22.138Z,4.00
2018-06-09T00:10:22.174Z,4.00
2018-06-09T00:11:22.206Z,4.00
2018-06-09T00:13:23.236Z,4.00
2018-06-09T00:14:22.515Z,4.00
2018-06-09T00:15:22.973Z,0.00
2018-06-09T00:16:22.342Z,0.00
2018-06-09T00:17:22.412Z,4.00
2018-06-09T00:18:22.498Z,4.00
2018-06-09T00:19:22.476Z,4.00
2018-06-09T00:20:22.712Z,4.00
2018-06-09T00:23:22.621Z,0.00
2018-06-09T00:25:22.678Z,0.00
2018-06-09T00:26:23.428Z,4.00
2018-06-09T00:28:22.799Z,4.00
2018-06-09T00:29:23.271Z,4.00
2018-06-09T00:30:23.761Z,0.00
2018-06-09T00:31:22.829Z,4.00
2018-06-09T00:32:23.583Z,0.00
2018-06-09T00:33:23.254Z,4.00
2018-06-09T00:34:22.934Z,0.00
2018-06-09T00:35:23.214Z,0.00
2018-06-09T00:36:23.061Z,0.00
2018-06-09T00:37:23.302Z,0.00
2018-06-09T00:38:23.366Z,0.00
2018-06-09T00:39:23.153Z,4.00
2018-06-09T00:41:23.518Z,4.00
2018-06-09T00:42:23.255Z,0.00
2018-06-09T00:43:23.284Z,4.00
2018-06-09T00:45:23.655Z,4.00
2018-06-09T00:46:23.589Z,4.00
2018-06-09T00:47:23.428Z,4.00
2018-06-09T00:48:23.655Z,0.00
2018-06-09T00:49:23.487Z,4.00
2018-06-09T00:50:23.725Z,4.00
2018-06-09T00:51:23.812Z,4.00
2018-06-09T00:52:23.787Z,4.00
2018-06-09T00:53:23.576Z,4.00
2018-06-09T00:54:23.666Z,4.00
2018-06-09T00:55:23.890Z,4.00
2018-06-09T00:56:24.042Z,0.00
2018-06-09T00:58:24.040Z,4.00
2018-06-09T01:00:24.180Z,4.00
2018-06-09T01:01:24.148Z,0.00
2018-06-09T01:02:23.922Z,0.00
2018-06-09T01:03:24.262Z,0.00
2018-06-09T01:04:24.242Z,0.00
2018-06-09T01:07:24.088Z,0.00
2018-06-09T01:08:24.128Z,0.00
2018-06-09T01:09:24.159Z,0.00
2018-06-09T01:10:24.445Z,4.00
2018-06-09T01:11:24.223Z,0.00
2018-06-09T01:12:24.466Z,0.00
2018-06-09T01:13:24.595Z,4.00
2018-06-09T01:14:24.326Z,4.00
2018-06-09T01:16:24.649Z,4.00
2018-06-09T01:17:24.780Z,4.00
2018-06-09T01:19:24.449Z,0.00
2018-06-09T01:20:24.528Z,0.00
2018-06-09T01:21:24.976Z,0.00
2018-06-09T01:22:24.850Z,0.00
2018-06-09T01:23:24.579Z,0.00
2018-06-09T01:24:24.612Z,0.00
2018-06-09T01:25:24.645Z,4.00
2018-06-09T01:26:24.883Z,4.00
2018-06-09T01:27:24.959Z,4.00
2018-06-09T01:28:25.150Z,4.00
2018-06-09T01:30:24.904Z,4.00
2018-06-09T01:32:24.979Z,0.00
2018-06-09T01:33:24.966Z,0.00
2018-06-09T01:34:25.617Z,0.00
2018-06-09T01:35:24.989Z,0.00
2018-06-09T01:36:25.073Z,0.00
2018-06-09T01:37:25.328Z,0.00
2018-06-09T01:39:25.381Z,0.00
2018-06-09T01:40:25.264Z,0.00
2018-06-09T01:41:25.565Z,0.00
2018-06-09T01:43:25.245Z,0.00
2018-06-09T01:45:25.360Z,0.00
2018-06-09T01:46:25.771Z,0.00
2018-06-09T01:49:25.805Z,0.00
2018-06-09T01:51:25.564Z,0.00
2018-06-09T01:52:25.585Z,0.00
2018-06-09T01:53:25.831Z,0.00
2018-06-09T01:54:25.818Z,0.00
2018-06-09T01:55:25.672Z,0.00
2018-06-09T01:56:26.134Z,0.00
2018-06-09T01:57:25.815Z,0.00
2018-06-09T01:58:26.002Z,0.00
2018-06-09T02:00:26.180Z,0.00
2018-06-09T02:01:26.105Z,0.00
2018-06-09T02:02:26.090Z,0.00
2018-06-09T02:03:26.233Z,0.00
2018-06-09T02:04:25.999Z,0.00
2018-06-09T02:06:26.018Z,0.00
2018-06-09T02:07:26.102Z,0.00
2018-06-09T02:08:26.291Z,0.00
2018-06-09T02:09:26.172Z,0.00
2018-06-09T02:11:26.543Z,0.00
2018-06-09T02:12:26.272Z,0.00
2018-06-09T02:13:26.506Z,0.00
2018-06-09T02:14:26.339Z,0.00
2018-06-09T02:15:26.571Z,0.00
2018-06-09T02:16:26.404Z,0.00
2018-06-09T02:17:26.744Z,0.00
2018-06-09T02:18:26.922Z,0.00
2018-06-09T02:19:26.504Z,0.00
2018-06-09T02:20:26.501Z,0.00
2018-06-09T02:21:26.576Z,0.00
2018-06-09T02:22:26.569Z,0.00
2018-06-09T02:23:26.645Z,0.00
2018-06-09T02:24:26.626Z,0.00
2018-06-09T02:27:26.983Z,0.00
2018-06-09T02:28:26.767Z,0.00
2018-06-09T02:29:26.801Z,0.00
2018-06-09T02:30:27.099Z,0.00
2018-06-09T02:31:26.914Z,0.00
2018-06-09T02:32:27.200Z,0.00
2018-06-09T02:33:27.233Z,0.00
2018-06-09T02:34:27.013Z,0.00
2018-06-09T02:35:27.249Z,0.00
2018-06-09T02:36:27.312Z,0.00
2018-06-09T02:37:27.315Z,0.00
2018-06-09T02:38:27.350Z,0.00
2018-06-09T02:39:27.432Z,0.00
2018-06-09T02:40:27.170Z,0.00
2018-06-09T02:41:27.256Z,0.00
2018-06-09T02:42:27.324Z,0.00
2018-06-09T02:43:27.341Z,0.00
2018-06-09T02:44:27.378Z,0.00
2018-06-09T02:45:27.490Z,0.00
2018-06-09T02:46:27.882Z,0.00
2018-06-09T02:47:27.478Z,0.00
2018-06-09T02:48:27.891Z,0.00
2018-06-09T02:49:27.528Z,4.00
2018-06-09T02:50:27.563Z,4.00
2018-06-09T02:52:27.944Z,4.00
2018-06-09T02:53:27.668Z,0.00
2018-06-09T02:54:27.742Z,4.00
2018-06-09T02:55:27.724Z,4.00
2018-06-09T02:56:27.968Z,8.00
2018-06-09T02:57:27.944Z,8.00
2018-06-09T02:59:28.315Z,8.00
2018-06-09T03:01:28.130Z,8.00
2018-06-09T03:02:28.164Z,8.00
2018-06-09T03:03:27.999Z,8.00
2018-06-09T03:04:28.234Z,12.00
2018-06-09T03:05:28.326Z,12.00
2018-06-09T03:06:28.047Z,16.00
2018-06-09T03:07:28.147Z,16.00
2018-06-09T03:08:28.169Z,20.00
2018-06-09T03:09:28.198Z,20.00
2018-06-09T03:10:28.231Z,20.00
2018-06-09T03:11:28.568Z,20.00
2018-06-09T03:12:28.300Z,24.00
2018-06-09T03:13:28.348Z,24.00
2018-06-09T03:14:28.573Z,24.00
2018-06-09T03:15:28.357Z,28.00
2018-06-09T03:16:28.389Z,36.00
2018-06-09T03:17:28.728Z,40.00
2018-06-09T03:19:28.540Z,52.00
2018-06-09T03:20:28.571Z,56.00
2018-06-09T03:21:28.609Z,64.00
2018-06-09T03:22:29.377Z,68.00
2018-06-09T03:24:29.007Z,84.00
2018-06-09T03:26:28.789Z,92.00
2018-06-09T03:27:28.806Z,92.00
2018-06-09T03:28:28.801Z,100.00
2018-06-09T03:29:28.877Z,108.00
2018-06-09T03:30:29.382Z,116.00
2018-06-09T03:31:29.147Z,116.00
2018-06-09T03:32:29.000Z,112.00
2018-06-09T03:33:29.029Z,112.00
2018-06-09T03:34:29.047Z,128.00
2018-06-09T03:35:29.075Z,140.00
2018-06-09T03:36:29.317Z,152.00
2018-06-09T03:37:29.099Z,164.00
2018-06-09T03:38:29.177Z,164.00
2018-06-09T03:39:29.368Z,172.00
2018-06-09T03:40:29.288Z,180.00
2018-06-09T03:42:29.815Z,212.00
2018-06-09T03:43:29.548Z,212.00
2018-06-09T03:44:29.689Z,208.00
2018-06-09T03:46:29.402Z,216.00
2018-06-09T03:47:29.481Z,236.00
2018-06-09T03:48:30.023Z,264.00
2018-06-09T03:49:30.359Z,288.00
2018-06-09T03:50:29.613Z,312.00
2018-06-09T03:51:29.828Z,332.00
2018-06-09T03:52:29.604Z,360.00
2018-06-09T03:53:29.712Z,396.00
2018-06-09T03:54:29.979Z,416.00
2018-06-09T03:55:29.974Z,428.00
2018-06-09T03:56:29.804Z,428.00
2018-06-09T03:57:29.819Z,444.00
2018-06-09T03:58:30.014Z,480.00
2018-06-09T03:59:29.913Z,520.00
2018-06-09T04:00:30.507Z,560.00
2018-06-09T04:01:29.961Z,588.00
2018-06-09T04:02:30.306Z,608.00
2018-06-09T04:03:30.344Z,636.00
2018-06-09T04:04:30.090Z,652.00
2018-06-09T04:06:30.382Z,720.00
2018-06-09T04:07:30.170Z,756.00
2018-06-09T04:08:30.211Z,772.00
2018-06-09T04:09:30.531Z,788.00
2018-06-09T04:10:30.315Z,796.00
2018-06-09T04:11:30.305Z,804.00
2018-06-09T04:12:31.105Z,816.00
2018-06-09T04:13:30.364Z,836.00
2018-06-09T04:14:30.703Z,844.00
2018-06-09T04:15:30.632Z,848.00
2018-06-09T04:16:30.465Z,848.00
2018-06-09T04:17:30.458Z,848.00
2018-06-09T04:18:30.789Z,844.00
2018-06-09T04:19:30.770Z,864.00
2018-06-09T04:20:30.853Z,912.00
2018-06-09T04:22:31.022Z,984.00
2018-06-09T04:23:30.700Z,960.00
2018-06-09T04:24:30.736Z,972.00
2018-06-09T04:25:31.019Z,1008.00
2018-06-09T04:26:30.755Z,1028.00
2018-06-09T04:27:30.836Z,1052.00
2018-06-09T04:28:30.869Z,1096.00
2018-06-09T04:29:31.108Z,1116.00
2018-06-09T04:30:30.894Z,1116.00
2018-06-09T04:31:30.973Z,1100.00
2018-06-09T04:32:31.210Z,1100.00
2018-06-09T04:33:31.294Z,1096.00
2018-06-09T04:35:31.312Z,1056.00
2018-06-09T04:36:31.142Z,1020.00
2018-06-09T04:37:31.189Z,972.00
2018-06-09T04:38:31.162Z,952.00
2018-06-09T04:39:31.847Z,920.00
2018-06-09T04:40:31.281Z,940.00
2018-06-09T04:42:31.556Z,980.00
2018-06-09T04:43:31.380Z,976.00
2018-06-09T04:44:31.370Z,980.00
2018-06-09T04:45:31.451Z,1032.00
2018-06-09T04:46:31.737Z,1084.00
2018-06-09T04:47:31.515Z,1108.00
2018-06-09T04:49:31.584Z,1064.00
2018-06-09T04:50:31.619Z,1056.00
2018-06-09T04:54:31.999Z,932.00
2018-06-09T04:55:31.790Z,920.00
2018-06-09T04:56:32.124Z,944.00
2018-06-09T04:57:31.852Z,1016.00
2018-06-09T04:58:32.089Z,1112.00
2018-06-09T04:59:32.135Z,1200.00
2018-06-09T05:00:31.958Z,1280.00
2018-06-09T05:01:32.297Z,1336.00
2018-06-09T05:02:32.021Z,1392.00
2018-06-09T05:04:32.297Z,1448.00
2018-06-09T05:05:32.076Z,1448.00
2018-06-09T05:06:32.159Z,1428.00
2018-06-09T05:07:32.245Z,1408.00
2018-06-09T05:08:33.035Z,1420.00
2018-06-09T05:09:32.264Z,1420.00
2018-06-09T05:10:32.807Z,1392.00
2018-06-09T05:12:32.385Z,1328.00
2018-06-09T05:13:32.407Z,1352.00
2018-06-09T05:14:32.391Z,1412.00
2018-06-09T05:15:32.970Z,1444.00
2018-06-09T05:16:32.456Z,1412.00
2018-06-09T05:17:32.689Z,1388.00
2018-06-09T05:18:32.567Z,1344.00
2018-06-09T05:19:32.630Z,1232.00
2018-06-09T05:20:32.838Z,1180.00
2018-06-09T05:21:32.822Z,1160.00
2018-06-09T05:22:32.953Z,1196.00
2018-06-09T05:23:32.946Z,1400.00
2018-06-09T05:25:33.013Z,1536.00
2018-06-09T05:26:32.791Z,1556.00
2018-06-09T05:27:32.893Z,1584.00
2018-06-09T05:28:33.122Z,1624.00
2018-06-09T05:29:33.143Z,1680.00
2018-06-09T05:30:33.283Z,1684.00
2018-06-09T05:31:33.226Z,1624.00
2018-06-09T05:32:33.260Z,1596.00
2018-06-09T05:33:33.035Z,1632.00
2018-06-09T05:34:33.315Z,1672.00
2018-06-09T05:36:33.642Z,1668.00
2018-06-09T05:37:33.171Z,1644.00
2018-06-09T05:38:33.252Z,1632.00
2018-06-09T05:39:33.284Z,1680.00
2018-06-09T05:41:33.557Z,1772.00
2018-06-09T05:42:33.542Z,1724.00
2018-06-09T05:43:33.387Z,1740.00
2018-06-09T05:44:33.471Z,1804.00
2018-06-09T05:45:33.848Z,1924.00
2018-06-09T05:47:34.013Z,1912.00
2018-06-09T05:48:33.595Z,1804.00
2018-06-09T05:49:33.745Z,1740.00
2018-06-09T05:50:34.171Z,1872.00
2018-06-09T05:51:33.695Z,1976.00
2018-06-09T05:52:33.678Z,2132.00
2018-06-09T05:53:34.635Z,2212.00
2018-06-09T05:54:34.207Z,2216.00
2018-06-09T05:57:33.900Z,2572.00
2018-06-09T05:58:34.090Z,2604.00
2018-06-09T05:59:34.218Z,2648.00
2018-06-09T06:00:34.002Z,2740.00
2018-06-09T06:01:34.071Z,2828.00
2018-06-09T06:02:34.272Z,2836.00
2018-06-09T06:04:34.140Z,2980.00
2018-06-09T06:05:34.173Z,3008.00
2018-06-09T06:06:34.665Z,3068.00
2018-06-09T06:07:34.243Z,3164.00
2018-06-09T06:09:34.258Z,3180.00
2018-06-09T06:10:34.342Z,3236.00
2018-06-09T06:11:34.378Z,3424.00
2018-06-09T06:12:34.864Z,3572.00
2018-06-09T06:13:34.750Z,3672.00
2018-06-09T06:14:34.495Z,3668.00
2018-06-09T06:15:34.532Z,3680.00
2018-06-09T06:16:34.523Z,3720.00
2018-06-09T06:17:34.582Z,3592.00
2018-06-09T06:18:35.123Z,3472.00
2018-06-09T06:19:34.860Z,3348.00
2018-06-09T06:20:34.694Z,3404.00
2018-06-09T06:21:34.676Z,3512.00
2018-06-09T06:22:34.766Z,3628.00
2018-06-09T06:23:34.943Z,3696.00
2018-06-09T06:25:35.109Z,3564.00
2018-06-09T06:26:35.098Z,3604.00
2018-06-09T06:27:35.282Z,3788.00
2018-06-09T06:28:34.919Z,3872.00
2018-06-09T06:29:35.099Z,3764.00
2018-06-09T06:30:35.041Z,3576.00
2018-06-09T06:31:35.523Z,3600.00
2018-06-09T06:32:35.100Z,3768.00
2018-06-09T06:33:35.089Z,3828.00
2018-06-09T06:34:35.438Z,3744.00
2018-06-09T06:35:35.154Z,3728.00
2018-06-09T06:36:35.238Z,3696.00
2018-06-09T06:37:35.570Z,3780.00
2018-06-09T06:39:36.054Z,3772.00
2018-06-09T06:40:35.328Z,3632.00
2018-06-09T06:41:35.362Z,3448.00
2018-06-09T06:43:36.034Z,3160.00
2018-06-09T06:44:35.524Z,3044.00
2018-06-09T06:45:35.702Z,3256.00
2018-06-09T06:46:36.496Z,3460.00
2018-06-09T06:47:35.614Z,3320.00
2018-06-09T06:48:35.654Z,3068.00
2018-06-09T06:49:35.935Z,2976.00
2018-06-09T06:51:35.780Z,2944.00
2018-06-09T06:52:36.045Z,3088.00
2018-06-09T06:53:35.775Z,3072.00
2018-06-09T06:54:36.013Z,3296.00
2018-06-09T06:55:36.450Z,3304.00
2018-06-09T06:56:35.963Z,3288.00
2018-06-09T06:57:35.968Z,3272.00
2018-06-09T06:58:36.045Z,3252.00
2018-06-09T06:59:36.039Z,3252.00
2018-06-09T07:00:36.081Z,3296.00
2018-06-09T07:01:36.658Z,3288.00
2018-06-09T07:03:36.122Z,3344.00
2018-06-09T07:04:36.617Z,3568.00
2018-06-09T07:05:36.574Z,3600.00
2018-06-09T07:06:36.298Z,3424.00
2018-06-09T07:07:36.312Z,3260.00
2018-06-09T07:09:36.678Z,3304.00
2018-06-09T07:11:36.463Z,3224.00
2018-06-09T07:12:36.802Z,3212.00
2018-06-09T07:13:36.822Z,3228.00
2018-06-09T07:14:36.753Z,3272.00
2018-06-09T07:15:36.810Z,3320.00
2018-06-09T07:16:36.929Z,3380.00
2018-06-09T07:17:36.653Z,3404.00
2018-06-09T07:18:36.845Z,3392.00
2018-06-09T07:19:36.932Z,3352.00
2018-06-09T07:20:37.065Z,3292.00
2018-06-09T07:21:37.002Z,3288.00
2018-06-09T07:24:37.149Z,3300.00
2018-06-09T07:25:36.886Z,3268.00
2018-06-09T07:26:37.177Z,3256.00
2018-06-09T07:27:37.307Z,3292.00
2018-06-09T07:29:37.069Z,3384.00
2018-06-09T07:30:37.113Z,3436.00
2018-06-09T07:31:37.395Z,3444.00
2018-06-09T07:33:37.271Z,3308.00
2018-06-09T07:34:37.401Z,3248.00
2018-06-09T07:35:37.937Z,3176.00
2018-06-09T07:38:38.242Z,2988.00
2018-06-09T07:39:37.375Z,2964.00
2018-06-09T07:40:37.508Z,2984.00
2018-06-09T07:42:37.559Z,3120.00
2018-06-09T07:43:37.508Z,3096.00
2018-06-09T07:44:37.594Z,3012.00
2018-06-09T07:45:37.931Z,2948.00
2018-06-09T07:46:37.664Z,2844.00
2018-06-09T07:47:37.727Z,2720.00
2018-06-09T07:49:37.821Z,2660.00
2018-06-09T07:50:37.816Z,2708.00
2018-06-09T07:51:37.834Z,2700.00
2018-06-09T07:52:38.131Z,2728.00
2018-06-09T07:53:37.907Z,2812.00
2018-06-09T07:54:37.947Z,2824.00
2018-06-09T07:55:37.985Z,2836.00
2018-06-09T07:56:38.012Z,2836.00
2018-06-09T07:57:38.073Z,2840.00
2018-06-09T07:58:38.080Z,2820.00
2018-06-09T07:59:39.262Z,2672.00
2018-06-09T08:00:38.100Z,2592.00
2018-06-09T08:02:38.218Z,2564.00
2018-06-09T08:04:38.618Z,2660.00
2018-06-09T08:05:38.326Z,2712.00
2018-06-09T08:06:38.660Z,2736.00
2018-06-09T08:07:38.396Z,2828.00
2018-06-09T08:08:38.441Z,2664.00
2018-06-09T08:09:38.669Z,2660.00
2018-06-09T08:10:38.502Z,2784.00
2018-06-09T08:11:38.536Z,2716.00
2018-06-09T08:12:38.886Z,2804.00
2018-06-09T08:13:38.902Z,2624.00
2018-06-09T08:14:38.640Z,2572.00
2018-06-09T08:15:38.684Z,2508.00
2018-06-09T08:16:38.658Z,2372.00
2018-06-09T08:19:39.076Z,2376.00
2018-06-09T08:20:38.846Z,2464.00
2018-06-09T08:21:38.907Z,2540.00
2018-06-09T08:23:38.958Z,2620.00
2018-06-09T08:24:38.947Z,2660.00
2018-06-09T08:25:39.023Z,2668.00
2018-06-09T08:26:39.311Z,2656.00
2018-06-09T08:27:39.049Z,2640.00
2018-06-09T08:28:39.134Z,2636.00
2018-06-09T08:29:39.519Z,2656.00
2018-06-09T08:30:39.426Z,2732.00
2018-06-09T08:31:39.246Z,2852.00
2018-06-09T08:32:39.524Z,2988.00
2018-06-09T08:33:39.304Z,3136.00
2018-06-09T08:34:39.438Z,3308.00
2018-06-09T08:35:39.328Z,3444.00
2018-06-09T08:36:39.914Z,3548.00
2018-06-09T08:38:39.725Z,3740.00
2018-06-09T08:39:39.525Z,3848.00
2018-06-09T08:40:39.497Z,3980.00
2018-06-09T08:41:39.532Z,4096.00
2018-06-09T08:42:39.615Z,4188.00
2018-06-09T08:43:39.973Z,4280.00
2018-06-09T08:44:40.441Z,4336.00
2018-06-09T08:46:39.760Z,4048.00
2018-06-09T08:47:39.795Z,3972.00
2018-06-09T08:48:39.825Z,3936.00
2018-06-09T08:49:40.067Z,3980.00
2018-06-09T08:50:39.903Z,4080.00
2018-06-09T08:51:39.928Z,4252.00
2018-06-09T08:52:40.381Z,4316.00
2018-06-09T08:53:39.953Z,4348.00
2018-06-09T08:54:40.311Z,4436.00
2018-06-09T08:55:40.075Z,4516.00
2018-06-09T08:56:40.625Z,4620.00
2018-06-09T08:57:40.168Z,4632.00
2018-06-09T08:58:40.381Z,4596.00
2018-06-09T08:59:40.340Z,4520.00
2018-06-09T09:01:40.322Z,4284.00
2018-06-09T09:02:40.435Z,4236.00
2018-06-09T09:03:41.421Z,4248.00
2018-06-09T09:04:40.390Z,4308.00
2018-06-09T09:05:40.656Z,4400.00
2018-06-09T09:06:40.469Z,4488.00
2018-06-09T09:07:40.901Z,4532.00
2018-06-09T09:09:40.826Z,4452.00
2018-06-09T09:10:41.163Z,4364.00
2018-06-09T09:11:40.638Z,4260.00
2018-06-09T09:12:40.674Z,4164.00
2018-06-09T09:13:40.706Z,4116.00
2018-06-09T09:14:40.693Z,4116.00
2018-06-09T09:17:40.799Z,4288.00
2018-06-09T09:18:40.883Z,4332.00
2018-06-09T09:19:40.958Z,4360.00
2018-06-09T09:20:40.956Z,4372.00
2018-06-09T09:21:41.258Z,4408.00
2018-06-09T09:23:41.262Z,4504.00
2018-06-09T09:25:41.138Z,4632.00
2018-06-09T09:26:41.176Z,4716.00
2018-06-09T09:27:41.808Z,4780.00
2018-06-09T09:29:41.479Z,4856.00
2018-06-09T09:30:41.353Z,4856.00
2018-06-09T09:31:41.392Z,4848.00
2018-06-09T09:33:41.682Z,4828.00
2018-06-09T09:34:41.453Z,4840.00
2018-06-09T09:35:41.561Z,4688.00
2018-06-09T09:37:41.568Z,4388.00
2018-06-09T09:38:41.592Z,4292.00
2018-06-09T09:39:41.942Z,4252.00
2018-06-09T09:40:41.614Z,4264.00
2018-06-09T09:41:41.921Z,4328.00
2018-06-09T09:42:41.746Z,4316.00
2018-06-09T09:43:41.742Z,4272.00
2018-06-09T09:44:41.820Z,4148.00
2018-06-09T09:45:42.146Z,4060.00
2018-06-09T09:46:41.886Z,3944.00
2018-06-09T09:47:41.871Z,3904.00
2018-06-09T09:49:42.012Z,4016.00
2018-06-09T09:50:41.979Z,4040.00
2018-06-09T09:51:42.067Z,4028.00
2018-06-09T09:52:42.593Z,3992.00
2018-06-09T09:53:42.432Z,3960.00
2018-06-09T09:55:42.355Z,3928.00
2018-06-09T09:56:42.271Z,3936.00
2018-06-09T09:57:42.226Z,3928.00
2018-06-09T09:58:42.657Z,3916.00
2018-06-09T09:59:42.598Z,3920.00
2018-06-09T10:00:42.834Z,3932.00
2018-06-09T10:01:42.360Z,3904.00
2018-06-09T10:02:42.655Z,3884.00
2018-06-09T10:03:42.464Z,3856.00
2018-06-09T10:04:42.565Z,3856.00
2018-06-09T10:05:42.528Z,3872.00
2018-06-09T10:06:42.540Z,3856.00
2018-06-09T10:07:42.630Z,3852.00
2018-06-09T10:08:42.663Z,3884.00
2018-06-09T10:09:42.651Z,3940.00
2018-06-09T10:10:42.804Z,3968.00
2018-06-09T10:12:43.113Z,4032.00
2018-06-09T10:13:42.791Z,4072.00
2018-06-09T10:14:43.082Z,4100.00
2018-06-09T10:15:42.864Z,4140.00
2018-06-09T10:16:42.949Z,4176.00
2018-06-09T10:17:43.193Z,4172.00
2018-06-09T10:19:43.303Z,4204.00
2018-06-09T10:20:43.388Z,4188.00
2018-06-09T10:21:43.434Z,4148.00
2018-06-09T10:22:43.108Z,4128.00
2018-06-09T10:24:43.259Z,4116.00
2018-06-09T10:25:43.269Z,4116.00
2018-06-09T10:27:43.842Z,4112.00
2018-06-09T10:28:43.371Z,4108.00
2018-06-09T10:29:44.118Z,4124.00
2018-06-09T10:30:43.560Z,4128.00
2018-06-09T10:31:43.586Z,4128.00
2018-06-09T10:32:43.985Z,4108.00
2018-06-09T10:33:43.569Z,4096.00
2018-06-09T10:34:44.626Z,4080.00
2018-06-09T10:35:43.732Z,4080.00
2018-06-09T10:37:43.648Z,4084.00
2018-06-09T10:38:44.331Z,4076.00
2018-06-09T10:39:44.139Z,4068.00
2018-06-09T10:40:43.822Z,4060.00
2018-06-09T10:41:44.394Z,4072.00
2018-06-09T10:42:43.827Z,4088.00
2018-06-09T10:43:43.910Z,4104.00
2018-06-09T10:44:44.247Z,4124.00
2018-06-09T10:45:43.989Z,4144.00
2018-06-09T10:46:43.989Z,4156.00
2018-06-09T10:47:44.077Z,4160.00
2018-06-09T10:48:44.438Z,4176.00
2018-06-09T10:49:44.119Z,4220.00
2018-06-09T10:50:44.500Z,4252.00
2018-06-09T10:51:44.148Z,4264.00
2018-06-09T10:52:44.444Z,4276.00
2018-06-09T10:53:44.285Z,4300.00
2018-06-09T10:54:44.604Z,4340.00
2018-06-09T10:55:44.354Z,4364.00
2018-06-09T10:56:44.379Z,4400.00
2018-06-09T10:57:44.421Z,4432.00
2018-06-09T10:58:44.414Z,4472.00
2018-06-09T10:59:45.044Z,4492.00
2018-06-09T11:01:44.852Z,4548.00
2018-06-09T11:02:44.917Z,4592.00
2018-06-09T11:03:44.833Z,4632.00
2018-06-09T11:04:44.633Z,4684.00
2018-06-09T11:05:44.700Z,4720.00
2018-06-09T11:06:44.745Z,4772.00
2018-06-09T11:07:44.767Z,4804.00
2018-06-09T11:08:45.058Z,4804.00
2018-06-09T11:09:44.848Z,4792.00
2018-06-09T11:10:44.828Z,4788.00
2018-06-09T11:11:44.928Z,4824.00
2018-06-09T11:12:45.309Z,4860.00
2018-06-09T11:13:44.999Z,4900.00
2018-06-09T11:14:45.325Z,4932.00
2018-06-09T11:15:45.312Z,4968.00
2018-06-09T11:16:45.104Z,5012.00
2018-06-09T11:17:45.129Z,5032.00
2018-06-09T11:18:45.316Z,5044.00
2018-06-09T11:19:45.204Z,5060.00
2018-06-09T11:20:45.462Z,5088.00
2018-06-09T11:21:45.240Z,5128.00
2018-06-09T11:23:45.292Z,5256.00
2018-06-09T11:24:45.331Z,5296.00
2018-06-09T11:25:45.418Z,5312.00
2018-06-09T11:26:45.808Z,5320.00
2018-06-09T11:27:45.497Z,5356.00
2018-06-09T11:28:45.824Z,5408.00
2018-06-09T11:29:45.778Z,5452.00
2018-06-09T11:30:45.600Z,5500.00
2018-06-09T11:31:46.001Z,5572.00
2018-06-09T11:32:45.976Z,5624.00
2018-06-09T11:33:45.739Z,5652.00
2018-06-09T11:34:45.895Z,5676.00
2018-06-09T11:35:45.808Z,5688.00
2018-06-09T11:36:45.858Z,5672.00
2018-06-09T11:37:45.878Z,5652.00
2018-06-09T11:38:46.136Z,5628.00
2018-06-09T11:39:46.074Z,5616.00
2018-06-09T11:40:45.955Z,5628.00
2018-06-09T11:41:46.023Z,5660.00
2018-06-09T11:42:45.991Z,5704.00
2018-06-09T11:43:46.093Z,5744.00
2018-06-09T11:45:46.385Z,5836.00
2018-06-09T11:46:46.170Z,5888.00
2018-06-09T11:47:46.158Z,5920.00
2018-06-09T11:48:46.397Z,5960.00
2018-06-09T11:49:46.240Z,6000.00
2018-06-09T11:50:46.284Z,6020.00
2018-06-09T11:51:46.554Z,6036.00
2018-06-09T11:52:46.387Z,6048.00
2018-06-09T11:53:46.429Z,6076.00
2018-06-09T11:54:46.457Z,6120.00
2018-06-09T11:55:46.447Z,6196.00
2018-06-09T11:56:46.527Z,6276.00
2018-06-09T11:57:46.872Z,6368.00
2018-06-09T11:58:46.603Z,6444.00
2018-06-09T11:59:46.592Z,6524.00
2018-06-09T12:00:46.687Z,6596.00
2018-06-09T12:01:46.716Z,6664.00
2018-06-09T12:02:46.904Z,6728.00
2018-06-09T12:03:47.335Z,6776.00
2018-06-09T12:04:46.831Z,6812.00
2018-06-09T12:05:46.874Z,6860.00
2018-06-09T12:06:46.903Z,6916.00
2018-06-09T12:07:47.083Z,7004.00
2018-06-09T12:08:46.917Z,7096.00
2018-06-09T12:09:47.268Z,7160.00
2018-06-09T12:10:47.028Z,7212.00
2018-06-09T12:11:47.092Z,7272.00
2018-06-09T12:12:47.175Z,7340.00
2018-06-09T12:13:47.297Z,7400.00
2018-06-09T12:14:47.169Z,7464.00
2018-06-09T12:15:47.170Z,7532.00
2018-06-09T12:16:47.206Z,7604.00
2018-06-09T12:17:47.522Z,7664.00
2018-06-09T12:18:47.478Z,7740.00
2018-06-09T12:19:47.318Z,7812.00
2018-06-09T12:20:47.353Z,7868.00
2018-06-09T12:21:47.897Z,7916.00
2018-06-09T12:22:47.420Z,7960.00
2018-06-09T12:23:47.530Z,7988.00
2018-06-09T12:24:47.504Z,7996.00
2018-06-09T12:25:47.530Z,8004.00
2018-06-09T12:26:47.576Z,8036.00
2018-06-09T12:27:47.957Z,8108.00
2018-06-09T12:28:47.644Z,8212.00
2018-06-09T12:30:47.749Z,8448.00
2018-06-09T12:31:47.762Z,8552.00
2018-06-09T12:32:47.787Z,8624.00
2018-06-09T12:33:48.084Z,8676.00
2018-06-09T12:34:47.857Z,8740.00
2018-06-09T12:35:47.905Z,8836.00
2018-06-09T12:36:47.932Z,8956.00
2018-06-09T12:37:47.967Z,9068.00
2018-06-09T12:38:48.014Z,9160.00
2018-06-09T12:39:48.090Z,9260.00
2018-06-09T12:40:48.346Z,9356.00
2018-06-09T12:41:48.112Z,9452.00
2018-06-09T12:42:48.173Z,9568.00
2018-06-09T12:43:48.187Z,9696.00
2018-06-09T12:44:48.225Z,9840.00
2018-06-09T12:45:48.266Z,9956.00
2018-06-09T12:46:48.295Z,10072.00
2018-06-09T12:47:48.607Z,10180.00
2018-06-09T12:48:48.444Z,10252.00
2018-06-09T12:49:48.412Z,10312.00
2018-06-09T12:50:48.443Z,10404.00
2018-06-09T12:51:48.479Z,10504.00
2018-06-09T12:52:48.520Z,10604.00
2018-06-09T12:53:48.553Z,10744.00
2018-06-09T12:54:48.913Z,10884.00
2018-06-09T12:55:48.627Z,11028.00
2018-06-09T12:57:48.700Z,13596.00
2018-06-09T12:58:49.289Z,17104.00
2018-06-09T12:59:48.830Z,18428.00
2018-06-09T13:00:48.862Z,18528.00
2018-06-09T13:01:49.152Z,17868.00
2018-06-09T13:02:48.908Z,17812.00
2018-06-09T13:03:48.969Z,18888.00
2018-06-09T13:04:49.225Z,20640.00
2018-06-09T13:05:49.264Z,21408.00
2018-06-09T13:07:49.188Z,23456.00
2018-06-09T13:08:49.405Z,23488.00
2018-06-09T13:09:49.205Z,24000.00
2018-06-09T13:10:49.179Z,24736.00
2018-06-09T13:11:49.219Z,24288.00
2018-06-09T13:12:49.281Z,24256.00
2018-06-09T13:13:49.647Z,24832.00
2018-06-09T13:14:49.684Z,25120.00
2018-06-09T13:15:49.617Z,26208.00
2018-06-09T13:16:49.655Z,28192.00
2018-06-09T13:17:49.496Z,28000.00
2018-06-09T13:18:49.536Z,27936.00
2018-06-09T13:20:49.644Z,28352.00
2018-06-09T13:21:49.845Z,29152.00
2018-06-09T13:22:50.001Z,28128.00
2018-06-09T13:23:49.679Z,27200.00
2018-06-09T13:24:49.803Z,28864.00
2018-06-09T13:25:50.070Z,30528.00
2018-06-09T13:26:49.802Z,31872.00
2018-06-09T13:27:49.886Z,31200.00
2018-06-09T13:28:49.871Z,29440.00
2018-06-09T13:29:50.472Z,30784.00
2018-06-09T13:31:50.072Z,33088.00
2018-06-09T13:32:50.024Z,33792.00
2018-06-09T13:33:50.124Z,32896.00
2018-06-09T13:34:50.148Z,32448.00
2018-06-09T13:35:50.213Z,32224.00
2018-06-09T13:36:51.130Z,32672.00
2018-06-09T13:37:50.218Z,33184.00
2018-06-09T13:39:50.361Z,32896.00
2018-06-09T13:40:50.590Z,34144.00
2018-06-09T13:42:50.792Z,34080.00
2018-06-09T13:43:50.509Z,33088.00
2018-06-09T13:44:50.554Z,33280.00
2018-06-09T13:45:50.552Z,33440.00
2018-06-09T13:46:50.621Z,34560.00
2018-06-09T13:47:50.624Z,34944.00
2018-06-09T13:48:50.709Z,34112.00
2018-06-09T13:49:51.005Z,32512.00
2018-06-09T13:50:51.099Z,31520.00
2018-06-09T13:52:50.830Z,33280.00
2018-06-09T13:53:50.871Z,32992.00
2018-06-09T13:54:50.897Z,33600.00
2018-06-09T13:55:50.940Z,33984.00
2018-06-09T13:56:51.364Z,33312.00
2018-06-09T13:57:51.119Z,33184.00
2018-06-09T13:58:51.310Z,33344.00
2018-06-09T13:59:51.867Z,32832.00
2018-06-09T14:01:52.164Z,31968.00
2018-06-09T14:02:51.304Z,31200.00